sensor_id;sensor_type;location;lat;lon;timestamp;pressure;altitude;pressure_sealevel;temperature;humidity
10946;BME280;5525;42.648;23.368;2023-11-19T00:02:20;94644.47;;;3.22;100.00
10946;BME280;5525;42.648;23.368;2023-11-19T00:04:47;94644.72;;;3.25;100.00
10946;BME280;5525;42.648;23.368;2023-11-19T00:07:14;94644.44;;;3.27;100.00
10946;BME280;5525;42.648;23.368;2023-11-19T00:09:41;94636.44;;;3.27;100.00
10946;BME280;5525;42.648;23.368;2023-11-19T00:12:09;94647.63;;;3.29;100.00
10946;BME280;5525;42.648;23.368;2023-11-19T00:14:35;94649.25;;;3.25;100.00
10946;BME280;5525;42.648;23.368;2023-11-19T00:17:04;94647.34;;;3.30;100.00
10946;BME280;5525;42.648;23.368;2023-11-19T00:19:31;94654.28;;;3.31;100.00
10946;BME280;5525;42.648;23.368;2023-11-19T00:21:57;94656.97;;;3.26;100.00
10946;BME280;5525;42.648;23.368;2023-11-19T00:24:28;94645.75;;;3.29;100.00
10946;BME280;5525;42.648;23.368;2023-11-19T00:26:55;94655.63;;;3.29;100.00
10946;BME280;5525;42.648;23.368;2023-11-19T00:29:21;94620.22;;;3.18;100.00
10946;BME280;5525;42.648;23.368;2023-11-19T00:31:48;94644.44;;;3.27;100.00
10946;BME280;5525;42.648;23.368;2023-11-19T00:34:16;94665.19;;;3.35;100.00
10946;BME280;5525;42.648;23.368;2023-11-19T00:36:47;94656.13;;;3.31;100.00
10946;BME280;5525;42.648;23.368;2023-11-19T00:39:14;94660.44;;;3.27;100.00
10946;BME280;5525;42.648;23.368;2023-11-19T00:41:41;94670.03;;;3.28;100.00
10946;BME280;5525;42.648;23.368;2023-11-19T00:44:08;94669.25;;;3.27;100.00
10946;BME280;5525;42.648;23.368;2023-11-19T00:46:34;94669.78;;;3.24;100.00
10946;BME280;5525;42.648;23.368;2023-11-19T00:49:02;94664.41;;;3.29;100.00
10946;BME280;5525;42.648;23.368;2023-11-19T00:51:30;94668.97;;;3.29;100.00
10946;BME280;5525;42.648;23.368;2023-11-19T00:53:57;94664.72;;;3.23;100.00
10946;BME280;5525;42.648;23.368;2023-11-19T00:56:24;94664.16;;;3.26;100.00
10946;BME280;5525;42.648;23.368;2023-11-19T00:58:51;94659.13;;;3.24;100.00
10946;BME280;5525;42.648;23.368;2023-11-19T01:01:18;94665.84;;;3.17;100.00
10946;BME280;5525;42.648;23.368;2023-11-19T01:03:44;94655.97;;;3.17;100.00
10946;BME280;5525;42.648;23.368;2023-11-19T01:06:11;94682.09;;;3.20;100.00
10946;BME280;5525;42.648;23.368;2023-11-19T01:08:42;94662.34;;;3.21;100.00
10946;BME280;5525;42.648;23.368;2023-11-19T01:11:09;94676.22;;;3.18;100.00
10946;BME280;5525;42.648;23.368;2023-11-19T01:13:35;94671.97;;;3.22;100.00
10946;BME280;5525;42.648;23.368;2023-11-19T01:16:03;94674.59;;;3.27;100.00
10946;BME280;5525;42.648;23.368;2023-11-19T01:18:30;94673.00;;;3.21;100.00
10946;BME280;5525;42.648;23.368;2023-11-19T01:20:57;94667.94;;;3.25;100.00
10946;BME280;5525;42.648;23.368;2023-11-19T01:23:24;94672.72;;;3.28;100.00
10946;BME280;5525;42.648;23.368;2023-11-19T01:25:52;94673.53;;;3.23;100.00
10946;BME280;5525;42.648;23.368;2023-11-19T01:28:18;94674.06;;;3.25;100.00
10946;BME280;5525;42.648;23.368;2023-11-19T01:30:45;94664.44;;;3.24;100.00
10946;BME280;5525;42.648;23.368;2023-11-19T01:33:12;94680.25;;;3.21;100.00
10946;BME280;5525;42.648;23.368;2023-11-19T01:35:39;94676.47;;;3.22;100.00
10946;BME280;5525;42.648;23.368;2023-11-19T01:38:06;94664.78;;;3.18;100.00
10946;BME280;5525;42.648;23.368;2023-11-19T01:40:34;94667.19;;;3.19;100.00
10946;BME280;5525;42.648;23.368;2023-11-19T01:43:03;94669.88;;;3.14;100.00
10946;BME280;5525;42.648;23.368;2023-11-19T01:45:31;94658.66;;;3.12;100.00
10946;BME280;5525;42.648;23.368;2023-11-19T01:47:59;94656.28;;;3.11;100.00
10946;BME280;5525;42.648;23.368;2023-11-19T01:50:27;94661.44;;;3.02;100.00
10946;BME280;5525;42.648;23.368;2023-11-19T01:52:55;94668.63;;;3.02;100.00
10946;BME280;5525;42.648;23.368;2023-11-19T01:55:24;94661.44;;;2.97;100.00
10946;BME280;5525;42.648;23.368;2023-11-19T01:57:53;94670.00;;;2.94;100.00
10946;BME280;5525;42.648;23.368;2023-11-19T02:00:22;94662.03;;;2.89;100.00
10946;BME280;5525;42.648;23.368;2023-11-19T02:02:49;94644.47;;;2.83;100.00
10946;BME280;5525;42.648;23.368;2023-11-19T02:05:17;94665.03;;;2.83;100.00
10946;BME280;5525;42.648;23.368;2023-11-19T02:07:44;94662.88;;;2.80;100.00
10946;BME280;5525;42.648;23.368;2023-11-19T02:10:11;94653.56;;;2.77;100.00
10946;BME280;5525;42.648;23.368;2023-11-19T02:12:40;94652.53;;;2.73;100.00
10946;BME280;5525;42.648;23.368;2023-11-19T02:15:09;94645.03;;;2.75;100.00
10946;BME280;5525;42.648;23.368;2023-11-19T02:17:37;94657.88;;;2.73;100.00
10946;BME280;5525;42.648;23.368;2023-11-19T02:20:05;94665.59;;;2.70;100.00
10946;BME280;5525;42.648;23.368;2023-11-19T02:22:34;94664.81;;;2.69;100.00
10946;BME280;5525;42.648;23.368;2023-11-19T02:25:04;94670.38;;;2.73;100.00
10946;BME280;5525;42.648;23.368;2023-11-19T02:27:59;94668.53;;;2.73;100.00
10946;BME280;5525;42.648;23.368;2023-11-19T02:30:27;94688.22;;;2.77;100.00
10946;BME280;5525;42.648;23.368;2023-11-19T02:32:54;94677.81;;;2.81;100.00
10946;BME280;5525;42.648;23.368;2023-11-19T02:35:22;94650.44;;;2.65;100.00
10946;BME280;5525;42.648;23.368;2023-11-19T02:37:49;94671.63;;;2.90;100.00
10946;BME280;5525;42.648;23.368;2023-11-19T02:40:16;94661.72;;;2.96;100.00
10946;BME280;5525;42.648;23.368;2023-11-19T02:42:42;94659.91;;;2.86;100.00
10946;BME280;5525;42.648;23.368;2023-11-19T02:45:11;94665.03;;;2.78;100.00
10946;BME280;5525;42.648;23.368;2023-11-19T02:47:40;94664.25;;;2.72;100.00
10946;BME280;5525;42.648;23.368;2023-11-19T02:50:08;94657.34;;;2.66;100.00
10946;BME280;5525;42.648;23.368;2023-11-19T02:52:40;94677.13;;;2.60;100.00
10946;BME280;5525;42.648;23.368;2023-11-19T02:55:07;94666.75;;;2.54;100.00
10946;BME280;5525;42.648;23.368;2023-11-19T02:57:37;94679.56;;;2.57;100.00
10946;BME280;5525;42.648;23.368;2023-11-19T03:00:07;94659.03;;;2.52;100.00
10946;BME280;5525;42.648;23.368;2023-11-19T03:02:40;94640.63;;;2.51;100.00
10946;BME280;5525;42.648;23.368;2023-11-19T03:05:11;94670.72;;;2.61;100.00
10946;BME280;5525;42.648;23.368;2023-11-19T03:07:40;94668.06;;;2.61;100.00
10946;BME280;5525;42.648;23.368;2023-11-19T03:10:08;94669.66;;;2.62;100.00
10946;BME280;5525;42.648;23.368;2023-11-19T03:12:38;94672.06;;;2.59;100.00
10946;BME280;5525;42.648;23.368;2023-11-19T03:15:06;94665.16;;;2.53;100.00
10946;BME280;5525;42.648;23.368;2023-11-19T03:17:35;94688.06;;;2.59;100.00
10946;BME280;5525;42.648;23.368;2023-11-19T03:20:05;94686.19;;;2.54;100.00
10946;BME280;5525;42.648;23.368;2023-11-19T03:22:35;94678.47;;;2.53;100.00
10946;BME280;5525;42.648;23.368;2023-11-19T03:25:03;94672.34;;;2.52;100.00
10946;BME280;5525;42.648;23.368;2023-11-19T03:27:30;94683.00;;;2.52;100.00
10946;BME280;5525;42.648;23.368;2023-11-19T03:29:57;94683.59;;;2.44;100.00
10946;BME280;5525;42.648;23.368;2023-11-19T03:32:24;94687.31;;;2.43;100.00
10946;BME280;5525;42.648;23.368;2023-11-19T03:34:50;94687.59;;;2.42;100.00
10946;BME280;5525;42.648;23.368;2023-11-19T03:37:18;94686.75;;;2.46;100.00
10946;BME280;5525;42.648;23.368;2023-11-19T03:39:45;94694.19;;;2.54;100.00
10946;BME280;5525;42.648;23.368;2023-11-19T03:42:12;94700.00;;;2.66;100.00
10946;BME280;5525;42.648;23.368;2023-11-19T03:44:39;94690.97;;;2.62;100.00
10946;BME280;5525;42.648;23.368;2023-11-19T03:47:05;94696.56;;;2.61;100.00
10946;BME280;5525;42.648;23.368;2023-11-19T03:49:32;94701.84;;;2.71;100.00
10946;BME280;5525;42.648;23.368;2023-11-19T03:51:59;94701.63;;;2.67;100.00
10946;BME280;5525;42.648;23.368;2023-11-19T03:54:27;94718.94;;;2.70;100.00
10946;BME280;5525;42.648;23.368;2023-11-19T03:56:54;94716.25;;;2.75;100.00
10946;BME280;5525;42.648;23.368;2023-11-19T03:59:21;94715.97;;;2.76;100.00
10946;BME280;5525;42.648;23.368;2023-11-19T04:01:48;94710.63;;;2.81;100.00
10946;BME280;5525;42.648;23.368;2023-11-19T04:04:14;94721.81;;;2.78;100.00
10946;BME280;5525;42.648;23.368;2023-11-19T04:06:41;94714.59;;;2.79;100.00
10946;BME280;5525;42.648;23.368;2023-11-19T04:09:09;94723.44;;;2.69;100.00
10946;BME280;5525;42.648;23.368;2023-11-19T04:11:37;94716.53;;;2.68;100.00
10946;BME280;5525;42.648;23.368;2023-11-19T04:14:05;94713.09;;;2.63;100.00
10946;BME280;5525;42.648;23.368;2023-11-19T04:16:32;94720.00;;;2.69;100.00
10946;BME280;5525;42.648;23.368;2023-11-19T04:18:59;94726.66;;;2.71;100.00
10946;BME280;5525;42.648;23.368;2023-11-19T04:21:25;94712.22;;;2.72;100.00
10946;BME280;5525;42.648;23.368;2023-11-19T04:23:52;94721.31;;;2.71;100.00
10946;BME280;5525;42.648;23.368;2023-11-19T04:26:19;94706.06;;;2.77;100.00
10946;BME280;5525;42.648;23.368;2023-11-19T04:28:47;94695.75;;;2.70;100.00
10946;BME280;5525;42.648;23.368;2023-11-19T04:31:14;94707.50;;;2.64;100.00
10946;BME280;5525;42.648;23.368;2023-11-19T04:33:41;94734.66;;;2.66;100.00
10946;BME280;5525;42.648;23.368;2023-11-19T04:36:09;94729.59;;;2.70;100.00
10946;BME280;5525;42.648;23.368;2023-11-19T04:38:37;94721.81;;;2.78;100.00
10946;BME280;5525;42.648;23.368;2023-11-19T04:41:04;94735.66;;;2.80;100.00
10946;BME280;5525;42.648;23.368;2023-11-19T04:43:32;94728.72;;;2.84;100.00
10946;BME280;5525;42.648;23.368;2023-11-19T04:46:03;94730.03;;;2.87;100.00
10946;BME280;5525;42.648;23.368;2023-11-19T04:48:30;94716.72;;;2.82;100.00
10946;BME280;5525;42.648;23.368;2023-11-19T04:50:57;94713.03;;;2.78;100.00
10946;BME280;5525;42.648;23.368;2023-11-19T04:53:23;94729.25;;;2.86;100.00
10946;BME280;5525;42.648;23.368;2023-11-19T04:55:50;94721.00;;;2.83;100.00
10946;BME280;5525;42.648;23.368;2023-11-19T04:58:17;94717.56;;;2.77;100.00
10946;BME280;5525;42.648;23.368;2023-11-19T05:00:44;94737.53;;;2.80;100.00
10946;BME280;5525;42.648;23.368;2023-11-19T05:03:12;94733.00;;;2.80;100.00
10946;BME280;5525;42.648;23.368;2023-11-19T05:05:39;94735.19;;;2.73;100.00
10946;BME280;5525;42.648;23.368;2023-11-19T05:08:06;94749.84;;;2.71;100.00
10946;BME280;5525;42.648;23.368;2023-11-19T05:10:32;94759.16;;;2.73;100.00
10946;BME280;5525;42.648;23.368;2023-11-19T05:12:59;94739.72;;;2.68;100.00
10946;BME280;5525;42.648;23.368;2023-11-19T05:15:26;94758.63;;;2.71;100.00
10946;BME280;5525;42.648;23.368;2023-11-19T05:17:52;94762.88;;;2.72;100.00
10946;BME280;5525;42.648;23.368;2023-11-19T05:20:21;94767.66;;;2.80;100.00
10946;BME280;5525;42.648;23.368;2023-11-19T05:22:47;94753.53;;;2.80;100.00
10946;BME280;5525;42.648;23.368;2023-11-19T05:25:17;94751.38;;;2.82;100.00
10946;BME280;5525;42.648;23.368;2023-11-19T05:27:45;94754.59;;;2.79;100.00
10946;BME280;5525;42.648;23.368;2023-11-19T05:30:12;94742.09;;;2.79;100.00
10946;BME280;5525;42.648;23.368;2023-11-19T05:32:39;94759.41;;;2.77;100.00
10946;BME280;5525;42.648;23.368;2023-11-19T05:35:07;94753.78;;;2.78;100.00
10946;BME280;5525;42.648;23.368;2023-11-19T05:37:35;94747.16;;;2.71;100.00
10946;BME280;5525;42.648;23.368;2023-11-19T05:40:02;94766.84;;;2.80;100.00
10946;BME280;5525;42.648;23.368;2023-11-19T05:42:32;94774.34;;;2.78;100.00
10946;BME280;5525;42.648;23.368;2023-11-19T05:44:59;94767.91;;;2.84;100.00
10946;BME280;5525;42.648;23.368;2023-11-19T05:47:26;94763.97;;;2.76;100.00
10946;BME280;5525;42.648;23.368;2023-11-19T05:49:54;94764.22;;;2.75;100.00
10946;BME280;5525;42.648;23.368;2023-11-19T05:52:21;94765.81;;;2.71;100.00
10946;BME280;5525;42.648;23.368;2023-11-19T05:54:50;94754.06;;;2.77;100.00
10946;BME280;5525;42.648;23.368;2023-11-19T05:57:18;94762.59;;;2.79;100.00
10946;BME280;5525;42.648;23.368;2023-11-19T05:59:48;94758.91;;;2.75;100.00
10946;BME280;5525;42.648;23.368;2023-11-19T06:02:15;94761.28;;;2.76;100.00
10946;BME280;5525;42.648;23.368;2023-11-19T06:04:42;94781.03;;;2.70;100.00
10946;BME280;5525;42.648;23.368;2023-11-19T06:07:12;94777.50;;;2.80;100.00
10946;BME280;5525;42.648;23.368;2023-11-19T06:09:39;94771.69;;;2.78;100.00
10946;BME280;5525;42.648;23.368;2023-11-19T06:12:07;94797.81;;;2.76;100.00
10946;BME280;5525;42.648;23.368;2023-11-19T06:14:34;94796.22;;;2.75;100.00
10946;BME280;5525;42.648;23.368;2023-11-19T06:17:01;94794.09;;;2.72;100.00
10946;BME280;5525;42.648;23.368;2023-11-19T06:19:30;94777.00;;;2.78;100.00
10946;BME280;5525;42.648;23.368;2023-11-19T06:21:57;94783.66;;;2.75;100.00
10946;BME280;5525;42.648;23.368;2023-11-19T06:24:23;94785.78;;;2.83;100.00
10946;BME280;5525;42.648;23.368;2023-11-19T06:26:50;94781.50;;;2.87;100.00
10946;BME280;5525;42.648;23.368;2023-11-19T06:29:18;94771.63;;;2.88;100.00
10946;BME280;5525;42.648;23.368;2023-11-19T06:31:45;94790.03;;;2.89;100.00
10946;BME280;5525;42.648;23.368;2023-11-19T06:34:14;94791.09;;;2.83;100.00
10946;BME280;5525;42.648;23.368;2023-11-19T06:36:41;94780.72;;;2.82;100.00
10946;BME280;5525;42.648;23.368;2023-11-19T06:39:08;94773.56;;;2.72;100.00
10946;BME280;5525;42.648;23.368;2023-11-19T06:41:36;94791.41;;;2.77;100.00
10946;BME280;5525;42.648;23.368;2023-11-19T06:44:03;94793.50;;;2.80;100.00
10946;BME280;5525;42.648;23.368;2023-11-19T06:46:32;94779.69;;;2.78;100.00
10946;BME280;5525;42.648;23.368;2023-11-19T06:48:59;94771.44;;;2.69;100.00
10946;BME280;5525;42.648;23.368;2023-11-19T06:51:26;94810.09;;;2.72;100.00
10946;BME280;5525;42.648;23.368;2023-11-19T06:53:53;94776.53;;;2.66;100.00
10946;BME280;5525;42.648;23.368;2023-11-19T06:56:20;94789.59;;;2.67;100.00
10946;BME280;5525;42.648;23.368;2023-11-19T06:58:48;94798.91;;;2.70;100.00
10946;BME280;5525;42.648;23.368;2023-11-19T07:01:15;94799.66;;;2.75;100.00
10946;BME280;5525;42.648;23.368;2023-11-19T07:03:43;94810.84;;;2.87;100.00
10946;BME280;5525;42.648;23.368;2023-11-19T07:06:10;94807.03;;;3.03;100.00
10946;BME280;5525;42.648;23.368;2023-11-19T07:08:38;94797.25;;;2.89;100.00
10946;BME280;5525;42.648;23.368;2023-11-19T07:11:05;94803.66;;;2.83;100.00
10946;BME280;5525;42.648;23.368;2023-11-19T07:13:32;94819.34;;;2.94;100.00
10946;BME280;5525;42.648;23.368;2023-11-19T07:15:59;94808.94;;;2.93;100.00
10946;BME280;5525;42.648;23.368;2023-11-19T07:18:25;94809.75;;;2.93;100.00
10946;BME280;5525;42.648;23.368;2023-11-19T07:20:53;94830.28;;;2.88;100.00
10946;BME280;5525;42.648;23.368;2023-11-19T07:23:20;94831.59;;;3.00;100.00
10946;BME280;5525;42.648;23.368;2023-11-19T07:25:47;94831.84;;;3.04;100.00
10946;BME280;5525;42.648;23.368;2023-11-19T07:28:15;94831.59;;;2.95;100.00
10946;BME280;5525;42.648;23.368;2023-11-19T07:30:42;94845.19;;;2.99;100.00
10946;BME280;5525;42.648;23.368;2023-11-19T07:33:09;94855.56;;;3.05;100.00
10946;BME280;5525;42.648;23.368;2023-11-19T07:35:37;94856.06;;;3.12;100.00
10946;BME280;5525;42.648;23.368;2023-11-19T07:38:05;94865.16;;;3.01;100.00
10946;BME280;5525;42.648;23.368;2023-11-19T07:40:32;94848.88;;;3.08;100.00
10946;BME280;5525;42.648;23.368;2023-11-19T07:42:59;94858.84;;;2.87;100.00
10946;BME280;5525;42.648;23.368;2023-11-19T07:45:26;94851.63;;;2.93;100.00
10946;BME280;5525;42.648;23.368;2023-11-19T07:47:53;94865.75;;;2.88;100.00
10946;BME280;5525;42.648;23.368;2023-11-19T07:50:21;94856.19;;;2.87;100.00
10946;BME280;5525;42.648;23.368;2023-11-19T07:52:48;94867.63;;;2.93;100.00
10946;BME280;5525;42.648;23.368;2023-11-19T07:55:16;94866.31;;;2.80;100.00
10946;BME280;5525;42.648;23.368;2023-11-19T07:57:43;94870.06;;;2.84;100.00
10946;BME280;5525;42.648;23.368;2023-11-19T08:00:11;94862.28;;;2.93;100.00
10946;BME280;5525;42.648;23.368;2023-11-19T08:02:38;94851.06;;;3.06;100.00
10946;BME280;5525;42.648;23.368;2023-11-19T08:05:06;94852.38;;;2.98;100.00
10946;BME280;5525;42.648;23.368;2023-11-19T08:07:32;94869.59;;;3.36;100.00
10946;BME280;5525;42.648;23.368;2023-11-19T08:09:59;94861.19;;;3.63;100.00
10946;BME280;5525;42.648;23.368;2023-11-19T08:12:27;94866.81;;;3.56;100.00
10946;BME280;5525;42.648;23.368;2023-11-19T08:14:54;94861.78;;;3.49;100.00
10946;BME280;5525;42.648;23.368;2023-11-19T08:17:21;94878.59;;;3.50;100.00
10946;BME280;5525;42.648;23.368;2023-11-19T08:19:48;94876.94;;;3.64;100.00
10946;BME280;5525;42.648;23.368;2023-11-19T08:22:15;94885.34;;;3.86;100.00
10946;BME280;5525;42.648;23.368;2023-11-19T08:24:43;94878.47;;;4.14;100.00
10946;BME280;5525;42.648;23.368;2023-11-19T08:27:10;94888.22;;;4.00;100.00
10946;BME280;5525;42.648;23.368;2023-11-19T08:29:38;94883.34;;;4.07;100.00
10946;BME280;5525;42.648;23.368;2023-11-19T08:32:06;94881.91;;;4.19;100.00
10946;BME280;5525;42.648;23.368;2023-11-19T08:34:33;94890.91;;;4.62;100.00
10946;BME280;5525;42.648;23.368;2023-11-19T08:37:00;94876.47;;;4.63;100.00
10946;BME280;5525;42.648;23.368;2023-11-19T08:39:26;94875.47;;;4.54;100.00
10946;BME280;5525;42.648;23.368;2023-11-19T08:41:53;94897.88;;;4.29;100.00
10946;BME280;5525;42.648;23.368;2023-11-19T08:44:21;94882.50;;;4.11;100.00
10946;BME280;5525;42.648;23.368;2023-11-19T08:46:49;94897.16;;;4.14;100.00
10946;BME280;5525;42.648;23.368;2023-11-19T08:49:16;94888.38;;;4.47;100.00
10946;BME280;5525;42.648;23.368;2023-11-19T08:51:43;94892.34;;;4.49;100.00
10946;BME280;5525;42.648;23.368;2023-11-19T08:54:10;94883.19;;;4.60;100.00
10946;BME280;5525;42.648;23.368;2023-11-19T08:56:38;94898.88;;;4.95;100.00
10946;BME280;5525;42.648;23.368;2023-11-19T08:59:04;94894.28;;;4.44;100.00
10946;BME280;5525;42.648;23.368;2023-11-19T09:01:31;94898.22;;;4.18;100.00
10946;BME280;5525;42.648;23.368;2023-11-19T09:04:00;94888.69;;;4.07;100.00
10946;BME280;5525;42.648;23.368;2023-11-19T09:06:26;94875.88;;;4.04;100.00
10946;BME280;5525;42.648;23.368;2023-11-19T09:08:53;94874.69;;;4.20;100.00
10946;BME280;5525;42.648;23.368;2023-11-19T09:11:23;94874.34;;;4.31;100.00
10946;BME280;5525;42.648;23.368;2023-11-19T09:13:50;94856.50;;;4.22;100.00
10946;BME280;5525;42.648;23.368;2023-11-19T09:16:17;94864.63;;;4.40;100.00
10946;BME280;5525;42.648;23.368;2023-11-19T09:18:44;94848.63;;;4.02;100.00
10946;BME280;5525;42.648;23.368;2023-11-19T09:21:12;94843.56;;;4.34;100.00
10946;BME280;5525;42.648;23.368;2023-11-19T09:23:39;94852.44;;;4.29;100.00
10946;BME280;5525;42.648;23.368;2023-11-19T09:26:06;94853.31;;;4.20;100.00
10946;BME280;5525;42.648;23.368;2023-11-19T09:28:35;94853.94;;;4.07;100.00
10946;BME280;5525;42.648;23.368;2023-11-19T09:31:02;94880.38;;;4.08;100.00
10946;BME280;5525;42.648;23.368;2023-11-19T09:33:30;94890.78;;;4.10;100.00
10946;BME280;5525;42.648;23.368;2023-11-19T09:35:56;94866.56;;;4.01;100.00
10946;BME280;5525;42.648;23.368;2023-11-19T09:38:24;94851.69;;;3.85;100.00
10946;BME280;5525;42.648;23.368;2023-11-19T09:40:51;94828.41;;;3.91;100.00
10946;BME280;5525;42.648;23.368;2023-11-19T09:43:18;94824.56;;;3.68;100.00
10946;BME280;5525;42.648;23.368;2023-11-19T09:45:48;94833.94;;;3.66;100.00
10946;BME280;5525;42.648;23.368;2023-11-19T09:48:16;94827.53;;;4.00;100.00
10946;BME280;5525;42.648;23.368;2023-11-19T09:50:44;94838.09;;;4.15;100.00
10946;BME280;5525;42.648;23.368;2023-11-19T09:53:12;94821.50;;;4.75;100.00
10946;BME280;5525;42.648;23.368;2023-11-19T09:55:40;94809.59;;;5.15;100.00
10946;BME280;5525;42.648;23.368;2023-11-19T09:58:07;94808.47;;;5.77;100.00
10946;BME280;5525;42.648;23.368;2023-11-19T10:00:34;94820.22;;;5.81;100.00
10946;BME280;5525;42.648;23.368;2023-11-19T10:03:02;94811.16;;;5.16;100.00
10946;BME280;5525;42.648;23.368;2023-11-19T10:05:30;94799.53;;;5.26;100.00
10946;BME280;5525;42.648;23.368;2023-11-19T10:07:58;94802.19;;;5.07;100.00
10946;BME280;5525;42.648;23.368;2023-11-19T10:10:24;94790.31;;;4.66;100.00
10946;BME280;5525;42.648;23.368;2023-11-19T10:12:52;94787.59;;;4.47;100.00
10946;BME280;5525;42.648;23.368;2023-11-19T10:15:21;94796.09;;;4.26;100.00
10946;BME280;5525;42.648;23.368;2023-11-19T10:17:49;94780.84;;;4.26;100.00
10946;BME280;5525;42.648;23.368;2023-11-19T10:20:16;94792.66;;;4.20;100.00
10946;BME280;5525;42.648;23.368;2023-11-19T10:22:43;94806.25;;;4.24;100.00
10946;BME280;5525;42.648;23.368;2023-11-19T10:25:22;94814.84;;;4.21;100.00
10946;BME280;5525;42.648;23.368;2023-11-19T10:27:49;94823.09;;;4.24;100.00
10946;BME280;5525;42.648;23.368;2023-11-19T10:30:20;94826.53;;;4.25;100.00
10946;BME280;5525;42.648;23.368;2023-11-19T10:33:05;94805.19;;;4.20;100.00
10946;BME280;5525;42.648;23.368;2023-11-19T10:35:33;94813.69;;;4.55;100.00
10946;BME280;5525;42.648;23.368;2023-11-19T10:38:00;94790.09;;;4.86;100.00
10946;BME280;5525;42.648;23.368;2023-11-19T10:40:40;94795.94;;;4.64;100.00
10946;BME280;5525;42.648;23.368;2023-11-19T10:43:07;94805.94;;;4.82;100.00
10946;BME280;5525;42.648;23.368;2023-11-19T10:45:36;94808.63;;;4.82;100.00
10946;BME280;5525;42.648;23.368;2023-11-19T10:48:05;94796.03;;;4.83;100.00
10946;BME280;5525;42.648;23.368;2023-11-19T10:50:33;94791.19;;;4.85;100.00
10946;BME280;5525;42.648;23.368;2023-11-19T10:53:00;94795.19;;;4.64;100.00
10946;BME280;5525;42.648;23.368;2023-11-19T10:55:28;94783.50;;;4.26;100.00
10946;BME280;5525;42.648;23.368;2023-11-19T10:57:59;94797.09;;;4.58;100.00
10946;BME280;5525;42.648;23.368;2023-11-19T11:00:29;94797.69;;;4.79;100.00
10946;BME280;5525;42.648;23.368;2023-11-19T11:03:00;94803.66;;;4.94;100.00
10946;BME280;5525;42.648;23.368;2023-11-19T11:05:29;94801.66;;;5.05;100.00
10946;BME280;5525;42.648;23.368;2023-11-19T11:08:00;94795.50;;;5.47;100.00
10946;BME280;5525;42.648;23.368;2023-11-19T11:10:28;94793.94;;;5.46;100.00
10946;BME280;5525;42.648;23.368;2023-11-19T11:12:59;94780.53;;;5.46;100.00
10946;BME280;5525;42.648;23.368;2023-11-19T11:15:30;94773.09;;;5.00;100.00
10946;BME280;5525;42.648;23.368;2023-11-19T11:18:00;94763.78;;;5.16;100.00
10946;BME280;5525;42.648;23.368;2023-11-19T11:20:29;94767.53;;;5.15;100.00
10946;BME280;5525;42.648;23.368;2023-11-19T11:23:12;94768.66;;;4.91;100.00
10946;BME280;5525;42.648;23.368;2023-11-19T11:25:52;94778.50;;;4.95;100.00
10946;BME280;5525;42.648;23.368;2023-11-19T11:28:30;94766.16;;;4.99;100.00
10946;BME280;5525;42.648;23.368;2023-11-19T11:31:09;94774.31;;;5.08;100.00
10946;BME280;5525;42.648;23.368;2023-11-19T11:33:55;94776.72;;;5.09;100.00
10946;BME280;5525;42.648;23.368;2023-11-19T11:36:26;94772.47;;;5.08;100.00
10946;BME280;5525;42.648;23.368;2023-11-19T11:38:53;94784.34;;;5.21;100.00
10946;BME280;5525;42.648;23.368;2023-11-19T11:41:26;94775.25;;;4.98;100.00
10946;BME280;5525;42.648;23.368;2023-11-19T11:43:53;94754.25;;;4.87;100.00
10946;BME280;5525;42.648;23.368;2023-11-19T11:46:56;94744.59;;;5.09;100.00
10946;BME280;5525;42.648;23.368;2023-11-19T11:49:28;94740.38;;;5.27;100.00
10946;BME280;5525;42.648;23.368;2023-11-19T11:51:59;94743.03;;;5.27;100.00
10946;BME280;5525;42.648;23.368;2023-11-19T11:54:27;94744.97;;;5.40;100.00
10946;BME280;5525;42.648;23.368;2023-11-19T11:57:03;94742.94;;;5.32;100.00
10946;BME280;5525;42.648;23.368;2023-11-19T11:59:37;94749.16;;;5.28;100.00
10946;BME280;5525;42.648;23.368;2023-11-19T12:02:04;94760.03;;;5.36;100.00
10946;BME280;5525;42.648;23.368;2023-11-19T12:04:36;94754.41;;;5.38;100.00
10946;BME280;5525;42.648;23.368;2023-11-19T12:07:04;94746.50;;;5.28;100.00
10946;BME280;5525;42.648;23.368;2023-11-19T12:09:31;94747.59;;;5.45;100.00
10946;BME280;5525;42.648;23.368;2023-11-19T12:12:07;94744.97;;;5.59;100.00
10946;BME280;5525;42.648;23.368;2023-11-19T12:15:02;94733.50;;;6.68;100.00
10946;BME280;5525;42.648;23.368;2023-11-19T12:17:40;94718.47;;;8.76;93.59
10946;BME280;5525;42.648;23.368;2023-11-19T12:20:11;94723.63;;;10.18;79.85
10946;BME280;5525;42.648;23.368;2023-11-19T12:22:38;94725.34;;;10.23;72.22
10946;BME280;5525;42.648;23.368;2023-11-19T12:25:06;94717.56;;;11.51;67.94
10946;BME280;5525;42.648;23.368;2023-11-19T12:27:34;94714.59;;;12.27;63.56
10946;BME280;5525;42.648;23.368;2023-11-19T12:30:01;94714.28;;;12.61;61.79
10946;BME280;5525;42.648;23.368;2023-11-19T12:32:37;94711.16;;;12.95;58.04
10946;BME280;5525;42.648;23.368;2023-11-19T12:35:04;94718.84;;;12.93;56.43
10946;BME280;5525;42.648;23.368;2023-11-19T12:37:33;94708.97;;;12.76;56.14
10946;BME280;5525;42.648;23.368;2023-11-19T12:40:00;94699.69;;;13.22;55.28
10946;BME280;5525;42.648;23.368;2023-11-19T12:42:37;94699.63;;;12.09;55.30
10946;BME280;5525;42.648;23.368;2023-11-19T12:45:05;94706.09;;;11.75;57.16
10946;BME280;5525;42.648;23.368;2023-11-19T12:47:32;94701.25;;;11.60;57.61
10946;BME280;5525;42.648;23.368;2023-11-19T12:49:59;94706.94;;;10.16;60.73
10946;BME280;5525;42.648;23.368;2023-11-19T12:52:26;94692.03;;;9.85;64.48
10946;BME280;5525;42.648;23.368;2023-11-19T12:54:54;94692.75;;;9.09;67.42
10946;BME280;5525;42.648;23.368;2023-11-19T12:57:21;94695.63;;;9.21;69.09
10946;BME280;5525;42.648;23.368;2023-11-19T12:59:57;94699.31;;;9.50;69.87
10946;BME280;5525;42.648;23.368;2023-11-19T13:02:44;94696.63;;;10.01;66.58
10946;BME280;5525;42.648;23.368;2023-11-19T13:05:27;94691.56;;;9.91;67.86
10946;BME280;5525;42.648;23.368;2023-11-19T13:08:03;94690.28;;;10.23;67.46